Time;durP1;ratioP1;P1;durP2;ratioP2;P2;SDS_P1;SDS_P2;PMS_P1;PMS_P2;Temp;Humidity;BMP_temperature;BMP_pressure;BME280_temperature;BME280_humidity;BME280_pressure;Samples;Min_cycle;Max_cycle;Signal;HPM_P1;HPM_P2
2023/03/12 00:01:09;;;;;;;8.97;6.27;;;5.20;79.80;;;;;;5053858;28;20441;-64
2023/03/12 00:03:35;;;;;;;9.47;6.00;;;5.20;80.80;;;;;;5060167;28;20179;-64
2023/03/12 00:06:02;;;;;;;10.90;7.17;;;5.20;80.20;;;;;;5055138;28;20466;-65
2023/03/12 00:08:28;;;;;;;12.10;6.40;;;5.20;80.50;;;;;;5053776;28;20207;-64
2023/03/12 00:10:54;;;;;;;8.70;6.00;;;5.20;81.00;;;;;;5057433;28;21039;-64
2023/03/12 00:13:19;;;;;;;10.80;6.67;;;5.20;81.60;;;;;;5051185;28;20249;-64
2023/03/12 00:15:45;;;;;;;10.87;6.47;;;5.20;81.70;;;;;;5057407;28;20660;-64
2023/03/12 00:18:10;;;;;;;9.17;6.43;;;5.10;82.00;;;;;;5057940;28;20207;-64
2023/03/12 00:20:36;;;;;;;9.93;6.70;;;5.10;82.90;;;;;;5050838;28;20183;-64
2023/03/12 00:23:01;;;;;;;9.43;6.10;;;5.10;83.00;;;;;;5052780;28;20265;-64
2023/03/12 00:25:27;;;;;;;6.93;5.53;;;5.10;83.30;;;;;;5050828;28;20203;-64
2023/03/12 00:27:53;;;;;;;10.30;7.53;;;5.10;83.70;;;;;;5050569;28;20207;-64
2023/03/12 00:30:18;;;;;;;8.63;6.47;;;5.10;83.90;;;;;;5050153;28;20180;-64
2023/03/12 00:32:44;;;;;;;7.20;5.93;;;5.00;84.10;;;;;;5046327;28;20195;-64
2023/03/12 00:35:09;;;;;;;7.67;6.10;;;5.10;84.20;;;;;;5050639;28;20884;-64
2023/03/12 00:37:36;;;;;;;12.47;6.00;;;5.00;84.50;;;;;;5052308;28;20215;-64
2023/03/12 00:40:04;;;;;;;8.43;6.57;;;5.00;85.10;;;;;;5051954;28;20256;-64
2023/03/12 00:42:30;;;;;;;9.90;5.90;;;5.00;85.70;;;;;;5054446;28;20810;-64
2023/03/12 00:44:55;;;;;;;8.43;5.70;;;4.90;86.30;;;;;;5055236;28;20438;-65
2023/03/12 00:47:21;;;;;;;13.10;6.33;;;4.90;86.70;;;;;;5056653;28;20214;-65
2023/03/12 00:49:47;;;;;;;8.97;6.83;;;4.90;87.30;;;;;;5051619;28;20648;-65
2023/03/12 00:52:12;;;;;;;12.40;7.03;;;4.90;87.80;;;;;;5049931;28;20300;-63
2023/03/12 00:54:38;;;;;;;11.00;7.10;;;5.00;87.80;;;;;;5054793;28;20227;-63
2023/03/12 00:57:05;;;;;;;10.00;8.43;;;4.90;88.40;;;;;;5048949;28;20269;-64
2023/03/12 00:59:31;;;;;;;10.30;7.70;;;5.00;89.00;;;;;;5051689;28;20628;-64
2023/03/12 01:01:56;;;;;;;12.13;7.40;;;5.00;89.70;;;;;;5054521;28;20442;-64
2023/03/12 01:04:22;;;;;;;11.00;7.33;;;5.00;90.20;;;;;;5046657;28;20202;-64
2023/03/12 01:06:48;;;;;;;11.40;8.07;;;5.00;90.60;;;;;;5053360;28;20237;-64
2023/03/12 01:09:13;;;;;;;10.30;7.90;;;4.80;91.00;;;;;;5052691;28;20450;-64
2023/03/12 01:11:39;;;;;;;12.17;8.40;;;4.80;91.80;;;;;;5054548;28;20187;-64
2023/03/12 01:14:07;;;;;;;10.37;8.77;;;4.80;91.50;;;;;;5049796;28;20206;-65
2023/03/12 01:16:33;;;;;;;11.83;8.90;;;4.70;91.80;;;;;;5055530;28;20289;-64
2023/03/12 01:19:00;;;;;;;12.10;8.30;;;4.70;92.10;;;;;;5054860;28;20595;-64
2023/03/12 01:21:27;;;;;;;20.13;8.90;;;4.70;92.60;;;;;;5046827;28;20823;-64
2023/03/12 01:23:54;;;;;;;13.60;8.80;;;4.50;93.90;;;;;;5054962;28;20528;-64
2023/03/12 01:26:19;;;;;;;13.17;9.93;;;4.40;94.70;;;;;;5050173;28;20457;-64
2023/03/12 01:28:45;;;;;;;14.80;9.90;;;4.40;95.00;;;;;;5049024;28;20864;-66
2023/03/12 01:31:14;;;;;;;13.27;9.57;;;4.50;95.40;;;;;;5051549;28;21038;-67
2023/03/12 01:33:39;;;;;;;16.20;10.50;;;4.50;95.70;;;;;;5054301;28;20192;-64
2023/03/12 01:36:18;;;;;;;14.60;10.90;;;4.50;96.10;;;;;;5052293;28;20472;-64
2023/03/12 01:38:44;;;;;;;16.57;11.40;;;4.50;96.70;;;;;;5051992;28;20598;-65
2023/03/12 01:41:09;;;;;;;20.63;10.23;;;4.50;97.10;;;;;;5046021;28;20438;-64
2023/03/12 01:43:37;;;;;;;17.60;10.80;;;4.60;97.60;;;;;;5056830;28;20921;-64
2023/03/12 01:46:26;;;;;;;11.97;9.33;;;4.60;97.50;;;;;;5050968;28;20195;-64
2023/03/12 01:49:13;;;;;;;12.43;8.80;;;4.40;98.10;;;;;;5050649;28;20452;-65
2023/03/12 01:51:50;;;;;;;12.23;8.60;;;4.40;99.30;;;;;;5051137;28;20442;-64
2023/03/12 01:54:23;;;;;;;11.53;9.03;;;4.40;99.40;;;;;;5050620;28;20476;-64
2023/03/12 01:56:50;;;;;;;8.67;6.73;;;4.40;99.60;;;;;;5050988;28;20484;-64
2023/03/12 01:59:41;;;;;;;9.33;7.50;;;4.40;99.50;;;;;;5051273;28;20831;-64
2023/03/12 02:02:07;;;;;;;8.90;7.50;;;4.40;99.80;;;;;;5049127;28;20789;-64
2023/03/12 02:04:33;;;;;;;13.23;7.90;;;4.50;99.90;;;;;;5045609;28;20976;-65
2023/03/12 02:07:04;;;;;;;14.17;7.57;;;4.50;99.90;;;;;;5047340;28;20453;-64
2023/03/12 02:09:33;;;;;;;9.30;7.43;;;4.40;99.90;;;;;;5052098;28;20907;-64
2023/03/12 02:11:59;;;;;;;12.90;6.97;;;4.40;99.90;;;;;;5051042;28;20524;-64
2023/03/12 02:14:25;;;;;;;12.50;7.73;;;4.40;99.90;;;;;;5049862;28;20467;-64
2023/03/12 02:16:52;;;;;;;11.97;7.40;;;4.40;99.90;;;;;;5047357;28;20469;-63
2023/03/12 02:19:49;;;;;;;11.83;6.90;;;4.40;99.90;;;;;;5049785;28;20720;-62
2023/03/12 02:22:15;;;;;;;11.67;6.30;;;4.30;99.90;;;;;;5049611;28;20429;-63
2023/03/12 02:24:46;;;;;;;9.53;6.90;;;4.30;99.90;;;;;;5050477;28;20454;-64
2023/03/12 02:27:13;;;;;;;8.30;7.30;;;4.40;99.90;;;;;;5049057;28;20496;-65
2023/03/12 02:29:42;;;;;;;8.90;5.63;;;4.40;99.90;;;;;;5050693;28;20853;-65
2023/03/12 02:32:14;;;;;;;7.87;6.30;;;4.40;99.90;;;;;;5048336;28;20499;-64
2023/03/12 02:34:39;;;;;;;8.87;5.83;;;4.40;99.90;;;;;;5053602;28;20504;-64
2023/03/12 02:37:05;;;;;;;7.50;6.00;;;4.40;99.90;;;;;;5050130;28;20510;-64
2023/03/12 02:39:31;;;;;;;8.10;6.17;;;4.50;99.90;;;;;;5049925;28;20405;-64
2023/03/12 02:41:58;;;;;;;8.80;5.90;;;4.50;99.90;;;;;;5050295;28;20445;-64
2023/03/12 02:44:28;;;;;;;12.20;6.60;;;4.60;99.90;;;;;;5051696;28;20187;-64
2023/03/12 02:46:56;;;;;;;6.80;5.73;;;4.60;99.90;;;;;;5047908;28;20551;-63
2023/03/12 02:49:24;;;;;;;9.20;6.23;;;4.60;99.90;;;;;;5051800;28;20441;-63
2023/03/12 02:51:50;;;;;;;11.27;5.90;;;4.70;99.90;;;;;;5051944;28;20437;-63
2023/03/12 02:54:17;;;;;;;9.00;5.63;;;4.70;99.90;;;;;;5050617;28;20855;-63
2023/03/12 02:56:42;;;;;;;7.20;5.30;;;4.70;99.90;;;;;;5050663;28;20463;-63
2023/03/12 02:59:08;;;;;;;7.47;5.50;;;4.70;99.90;;;;;;5049390;28;20445;-63
2023/03/12 03:01:34;;;;;;;8.53;6.17;;;4.80;99.90;;;;;;5048240;28;20253;-64
2023/03/12 03:04:01;;;;;;;10.60;5.10;;;4.90;99.90;;;;;;5047489;28;20426;-64
2023/03/12 03:06:27;;;;;;;8.57;4.93;;;4.80;99.90;;;;;;5051296;28;20456;-64
2023/03/12 03:08:53;;;;;;;9.40;5.67;;;4.80;99.90;;;;;;5050504;28;20449;-64
2023/03/12 03:11:23;;;;;;;8.47;5.50;;;4.80;99.90;;;;;;5047585;28;20438;-64
2023/03/12 03:13:49;;;;;;;11.47;5.37;;;4.90;99.90;;;;;;5046758;28;20263;-64
2023/03/12 03:16:14;;;;;;;8.80;5.20;;;5.00;99.90;;;;;;5046500;28;20460;-63
2023/03/12 03:18:40;;;;;;;6.80;5.23;;;4.90;99.90;;;;;;5052337;28;21462;-64
2023/03/12 03:21:08;;;;;;;8.03;6.00;;;4.90;99.90;;;;;;5051697;28;20194;-64
2023/03/12 03:23:35;;;;;;;8.83;5.20;;;4.90;99.90;;;;;;5054988;28;20179;-64
2023/03/12 03:26:01;;;;;;;6.50;4.97;;;5.00;99.90;;;;;;5055754;28;20440;-64
2023/03/12 03:28:28;;;;;;;6.87;5.07;;;5.10;99.90;;;;;;5051930;28;20539;-64
2023/03/12 03:31:00;;;;;;;6.77;4.60;;;5.00;99.90;;;;;;5051978;28;20270;-64
2023/03/12 03:33:26;;;;;;;5.90;4.50;;;5.00;99.90;;;;;;5052988;28;20432;-63
2023/03/12 03:35:54;;;;;;;7.20;5.20;;;5.10;99.90;;;;;;5053837;28;20468;-64
2023/03/12 03:38:20;;;;;;;5.80;4.43;;;5.10;99.90;;;;;;5056289;28;20528;-63
2023/03/12 03:40:46;;;;;;;5.70;4.73;;;5.10;99.90;;;;;;5053281;28;20440;-64
2023/03/12 03:43:11;;;;;;;9.13;4.60;;;5.20;99.90;;;;;;5055931;28;20444;-64
2023/03/12 03:45:37;;;;;;;9.40;5.40;;;5.20;99.90;;;;;;5053721;28;20183;-64
2023/03/12 03:48:03;;;;;;;9.40;4.57;;;5.20;99.90;;;;;;5053560;28;20303;-64
2023/03/12 03:50:29;;;;;;;5.30;4.40;;;5.20;99.90;;;;;;5048994;28;20224;-64
2023/03/12 03:52:54;;;;;;;7.63;4.37;;;5.20;99.90;;;;;;5050523;28;21107;-64
2023/03/12 03:55:20;;;;;;;7.53;4.23;;;5.30;99.90;;;;;;5053739;28;22318;-64
2023/03/12 03:57:46;;;;;;;6.80;4.50;;;5.30;99.90;;;;;;5047539;28;20200;-64
2023/03/12 04:00:15;;;;;;;8.50;5.00;;;5.30;99.90;;;;;;5050383;28;20183;-64
2023/03/12 04:02:40;;;;;;;9.73;4.60;;;5.30;99.90;;;;;;5053306;28;20990;-63
2023/03/12 04:05:06;;;;;;;8.53;4.47;;;5.20;99.90;;;;;;5050959;28;20538;-64
2023/03/12 04:07:32;;;;;;;8.77;4.83;;;5.20;99.90;;;;;;5055857;28;20244;-64
2023/03/12 04:09:57;;;;;;;8.90;5.23;;;5.20;99.90;;;;;;5054247;28;20441;-64
2023/03/12 04:12:24;;;;;;;6.07;4.30;;;5.20;99.90;;;;;;5048549;28;20187;-64
2023/03/12 04:14:51;;;;;;;6.07;4.80;;;5.20;99.90;;;;;;5048028;28;20207;-65
2023/03/12 04:17:17;;;;;;;10.83;4.37;;;5.30;99.90;;;;;;5051975;28;20874;-64
2023/03/12 04:19:43;;;;;;;9.97;5.00;;;5.30;99.90;;;;;;5049426;28;20433;-64
2023/03/12 04:22:08;;;;;;;6.83;4.57;;;5.40;99.90;;;;;;5048235;28;20940;-64
2023/03/12 04:24:34;;;;;;;8.73;4.60;;;5.40;99.90;;;;;;5051291;28;20250;-64
2023/03/12 04:26:59;;;;;;;7.07;5.20;;;5.50;99.90;;;;;;5050849;28;20582;-63
2023/03/12 04:29:25;;;;;;;6.80;4.47;;;5.50;99.90;;;;;;5049813;28;20349;-63
2023/03/12 04:31:51;;;;;;;6.13;4.50;;;5.50;99.90;;;;;;5052959;28;20187;-63
2023/03/12 04:34:16;;;;;;;6.43;4.57;;;5.50;99.90;;;;;;5051211;28;20252;-63
2023/03/12 04:36:42;;;;;;;10.20;5.53;;;5.60;99.90;;;;;;5051811;28;20195;-64
2023/03/12 04:39:08;;;;;;;7.73;4.50;;;5.60;99.90;;;;;;5049466;28;20232;-65
2023/03/12 04:41:34;;;;;;;5.90;4.30;;;5.60;99.90;;;;;;5049935;28;20179;-64
2023/03/12 04:44:00;;;;;;;7.03;5.00;;;5.60;99.90;;;;;;5053020;28;20437;-64
2023/03/12 04:46:26;;;;;;;5.90;4.73;;;5.70;99.90;;;;;;5051906;28;20848;-64
2023/03/12 04:48:51;;;;;;;24.87;6.43;;;5.60;99.90;;;;;;5050637;28;20183;-65
2023/03/12 04:51:17;;;;;;;11.47;5.33;;;5.70;99.90;;;;;;5048495;28;20172;-65
2023/03/12 04:53:43;;;;;;;6.43;5.00;;;5.70;99.90;;;;;;5048924;28;20176;-65
2023/03/12 04:56:09;;;;;;;6.20;4.57;;;5.70;99.90;;;;;;5052127;28;20468;-65
2023/03/12 04:58:34;;;;;;;5.60;4.73;;;5.70;99.90;;;;;;5051805;28;20183;-65
2023/03/12 05:01:00;;;;;;;5.47;4.37;;;5.70;99.90;;;;;;5041783;28;20214;-64
2023/03/12 05:03:26;;;;;;;9.00;5.83;;;5.70;99.90;;;;;;5051805;28;20628;-65
2023/03/12 05:05:52;;;;;;;9.07;5.10;;;5.70;99.90;;;;;;5052513;28;20469;-64
2023/03/12 05:08:17;;;;;;;7.47;4.97;;;5.70;99.90;;;;;;5051832;28;20473;-64
2023/03/12 05:10:44;;;;;;;5.43;4.83;;;5.70;99.90;;;;;;5050962;28;20211;-64
2023/03/12 05:13:15;;;;;;;8.13;5.43;;;5.70;99.90;;;;;;5051458;28;20590;-64
2023/03/12 05:15:41;;;;;;;10.93;6.67;;;5.70;99.90;;;;;;5051380;28;20511;-63
2023/03/12 05:18:06;;;;;;;8.07;5.13;;;5.70;99.90;;;;;;5050878;28;20822;-65
2023/03/12 05:20:32;;;;;;;8.00;5.47;;;5.70;99.90;;;;;;5047425;28;20182;-65
2023/03/12 05:22:57;;;;;;;8.10;5.00;;;5.70;99.90;;;;;;5050750;28;20180;-65
2023/03/12 05:25:23;;;;;;;8.57;5.23;;;5.70;99.90;;;;;;5046652;28;20187;-64
2023/03/12 05:27:48;;;;;;;7.47;5.33;;;5.70;99.90;;;;;;5052901;28;20199;-63
2023/03/12 05:30:14;;;;;;;7.10;4.87;;;5.70;99.90;;;;;;5048411;28;20197;-64
2023/03/12 05:32:40;;;;;;;10.17;4.63;;;5.60;99.90;;;;;;5054243;28;20180;-64
2023/03/12 05:35:05;;;;;;;10.60;5.00;;;5.60;99.90;;;;;;5053208;28;20305;-65
2023/03/12 05:37:31;;;;;;;7.57;4.60;;;5.60;99.90;;;;;;5052147;28;20229;-65
2023/03/12 05:39:56;;;;;;;7.37;4.10;;;5.60;99.90;;;;;;5033138;28;20188;-65
2023/03/12 05:42:23;;;;;;;7.90;5.10;;;5.60;99.90;;;;;;5054692;28;20183;-65
2023/03/12 05:44:50;;;;;;;8.37;4.67;;;5.60;99.90;;;;;;5051748;28;20649;-65
2023/03/12 05:47:16;;;;;;;6.83;4.10;;;5.70;99.90;;;;;;5055425;28;20815;-63
2023/03/12 05:49:43;;;;;;;8.07;4.97;;;5.70;99.90;;;;;;5050633;28;20450;-63
2023/03/12 05:52:08;;;;;;;7.13;4.23;;;5.60;99.90;;;;;;5051650;28;20436;-63
2023/03/12 05:54:34;;;;;;;5.97;4.87;;;5.60;99.90;;;;;;5050494;28;20219;-63
2023/03/12 05:57:01;;;;;;;6.63;4.20;;;5.60;99.90;;;;;;5047618;28;20731;-63
2023/03/12 05:59:27;;;;;;;8.00;4.67;;;5.60;99.90;;;;;;5048753;28;20183;-63
2023/03/12 06:01:53;;;;;;;7.20;4.57;;;5.50;99.90;;;;;;5051416;28;20912;-65
2023/03/12 06:04:19;;;;;;;5.10;4.47;;;5.60;99.90;;;;;;5053769;28;20282;-65
2023/03/12 06:06:44;;;;;;;8.40;4.70;;;5.60;99.90;;;;;;5052547;28;20204;-64
2023/03/12 06:09:10;;;;;;;6.00;4.53;;;5.60;99.90;;;;;;5050004;28;20668;-64
2023/03/12 06:11:35;;;;;;;4.60;4.10;;;5.70;99.90;;;;;;5051096;28;20180;-64
2023/03/12 06:14:01;;;;;;;7.03;4.60;;;5.70;99.90;;;;;;5049009;28;20210;-64
2023/03/12 06:16:28;;;;;;;7.43;4.40;;;5.60;99.90;;;;;;5047626;28;20200;-64
2023/03/12 06:18:56;;;;;;;6.33;4.60;;;5.70;99.90;;;;;;5048243;28;20445;-63
2023/03/12 06:21:25;;;;;;;4.97;3.90;;;5.70;99.90;;;;;;5046670;28;20559;-64
2023/03/12 06:23:51;;;;;;;11.00;5.00;;;5.70;99.90;;;;;;5050984;28;20433;-64
2023/03/12 06:26:19;;;;;;;5.13;4.00;;;5.70;99.90;;;;;;5047366;28;20466;-64
2023/03/12 06:28:45;;;;;;;6.63;4.13;;;5.70;99.90;;;;;;5048484;28;20446;-64
2023/03/12 06:31:11;;;;;;;6.80;5.10;;;5.70;99.90;;;;;;5047145;28;20509;-64
2023/03/12 06:33:36;;;;;;;10.23;5.37;;;5.70;99.90;;;;;;5047966;28;20958;-65
2023/03/12 06:36:04;;;;;;;7.13;4.70;;;5.80;99.90;;;;;;5052431;28;20211;-64
2023/03/12 06:38:31;;;;;;;7.37;3.97;;;5.80;99.90;;;;;;5049372;28;20265;-64
2023/03/12 06:41:05;;;;;;;4.20;3.70;;;5.80;99.90;;;;;;5048664;28;21186;-64
2023/03/12 06:43:32;;;;;;;4.57;4.10;;;5.90;99.90;;;;;;5052375;28;20436;-64
2023/03/12 06:45:59;;;;;;;7.43;4.33;;;5.90;99.90;;;;;;5048048;28;20507;-64
2023/03/12 06:48:26;;;;;;;9.33;4.93;;;5.90;99.90;;;;;;5050582;28;20559;-64
2023/03/12 06:50:52;;;;;;;7.03;4.80;;;5.90;99.90;;;;;;5048633;28;20437;-65
2023/03/12 06:53:19;;;;;;;9.27;4.53;;;5.90;99.90;;;;;;5050531;28;20493;-64
2023/03/12 06:55:45;;;;;;;8.67;4.70;;;5.80;99.90;;;;;;5049803;28;20249;-64
2023/03/12 06:58:11;;;;;;;5.63;4.00;;;5.80;99.90;;;;;;5054005;28;20527;-64
2023/03/12 07:00:37;;;;;;;5.30;4.30;;;5.90;99.90;;;;;;5050659;28;20436;-64
2023/03/12 07:03:03;;;;;;;8.07;5.23;;;6.00;99.90;;;;;;5050499;28;20445;-64
2023/03/12 07:05:31;;;;;;;6.87;4.93;;;6.10;99.90;;;;;;5052852;28;20191;-64
2023/03/12 07:07:57;;;;;;;7.30;4.97;;;6.10;99.90;;;;;;5048281;28;20534;-64
2023/03/12 07:10:23;;;;;;;7.47;4.97;;;6.10;99.90;;;;;;5045358;28;20450;-64
2023/03/12 07:12:49;;;;;;;11.97;6.33;;;6.20;99.90;;;;;;5053012;28;20189;-65
2023/03/12 07:15:15;;;;;;;7.50;5.10;;;6.20;99.90;;;;;;5046776;28;20462;-64
2023/03/12 07:17:41;;;;;;;6.93;4.93;;;6.30;99.90;;;;;;5050580;28;20506;-64
2023/03/12 07:20:07;;;;;;;11.20;5.70;;;6.30;99.90;;;;;;5045880;28;20812;-64
2023/03/12 07:22:33;;;;;;;8.70;5.40;;;6.30;99.90;;;;;;5048010;28;20754;-64
2023/03/12 07:24:58;;;;;;;6.70;5.30;;;6.30;99.90;;;;;;5052587;28;21092;-61
2023/03/12 07:27:24;;;;;;;10.10;6.50;;;6.30;99.90;;;;;;5054762;28;20858;-63
2023/03/12 07:29:49;;;;;;;7.93;5.50;;;6.40;99.90;;;;;;5048555;28;20201;-63
2023/03/12 07:32:15;;;;;;;10.50;6.40;;;6.40;99.90;;;;;;5046117;28;20180;-64
2023/03/12 07:34:41;;;;;;;9.00;6.20;;;6.40;99.90;;;;;;5049659;28;20214;-63
2023/03/12 07:37:07;;;;;;;8.77;5.77;;;6.40;99.90;;;;;;5046654;28;20768;-62
2023/03/12 07:39:32;;;;;;;8.53;6.07;;;6.40;99.90;;;;;;5053683;28;20183;-63
2023/03/12 07:41:58;;;;;;;8.63;6.47;;;6.40;99.90;;;;;;5052166;28;20183;-63
2023/03/12 07:44:25;;;;;;;7.37;6.20;;;6.40;99.90;;;;;;5053320;28;20219;-63
2023/03/12 07:46:51;;;;;;;7.50;6.40;;;6.40;99.90;;;;;;5051120;28;20301;-63
2023/03/12 07:49:17;;;;;;;7.73;5.60;;;6.40;99.90;;;;;;5052785;28;21257;-63
2023/03/12 07:51:42;;;;;;;8.13;5.40;;;6.40;99.90;;;;;;5052467;28;20536;-63
2023/03/12 07:54:08;;;;;;;8.00;5.20;;;6.40;99.90;;;;;;5046274;28;20563;-62
2023/03/12 07:56:33;;;;;;;6.60;5.07;;;6.40;99.90;;;;;;5051558;28;20208;-63
2023/03/12 07:58:59;;;;;;;7.50;5.90;;;6.40;99.90;;;;;;5048786;28;20274;-62
2023/03/12 08:01:30;;;;;;;6.70;5.30;;;6.30;99.90;;;;;;5050458;28;20184;-62
2023/03/12 08:03:59;;;;;;;9.80;4.80;;;6.30;99.90;;;;;;5049410;28;20176;-63
2023/03/12 08:06:25;;;;;;;13.77;6.13;;;6.30;99.90;;;;;;5048310;28;20469;-63
2023/03/12 08:08:51;;;;;;;12.60;5.47;;;6.30;99.90;;;;;;5049985;28;20439;-62
2023/03/12 08:11:17;;;;;;;7.00;5.13;;;6.30;99.90;;;;;;5044323;28;20544;-63
2023/03/12 08:13:43;;;;;;;10.03;5.50;;;6.30;99.90;;;;;;5047974;28;21064;-63
2023/03/12 08:16:08;;;;;;;10.53;5.40;;;6.30;99.90;;;;;;5050860;28;20845;-64
2023/03/12 08:18:34;;;;;;;5.83;4.57;;;6.30;99.90;;;;;;5050056;28;20195;-64
2023/03/12 08:21:00;;;;;;;9.93;6.10;;;6.40;99.90;;;;;;5047665;28;20187;-63
2023/03/12 08:23:25;;;;;;;9.30;5.70;;;6.30;99.90;;;;;;5054237;28;20183;-63
2023/03/12 08:25:52;;;;;;;7.33;5.73;;;6.30;99.90;;;;;;5052461;28;20238;-63
2023/03/12 08:28:19;;;;;;;7.43;5.77;;;6.30;99.90;;;;;;5049282;28;20463;-65
2023/03/12 08:30:54;;;;;;;10.10;6.63;;;6.30;99.90;;;;;;5049650;28;20489;-62
2023/03/12 08:33:20;;;;;;;7.40;5.27;;;6.30;99.90;;;;;;5051122;28;20440;-63
2023/03/12 08:35:47;;;;;;;7.37;5.97;;;6.30;99.90;;;;;;5045765;28;21169;-65
2023/03/12 08:38:13;;;;;;;6.97;6.00;;;6.30;99.90;;;;;;5042012;28;20480;-65
2023/03/12 08:40:38;;;;;;;7.53;5.80;;;6.00;99.90;;;;;;5052306;28;21046;-65
2023/03/12 08:43:04;;;;;;;9.10;6.50;;;6.00;99.90;;;;;;5049743;28;20266;-64
2023/03/12 08:45:29;;;;;;;9.93;7.10;;;6.00;99.90;;;;;;5050752;28;20187;-65
2023/03/12 08:47:55;;;;;;;10.97;8.00;;;6.10;99.90;;;;;;5053284;28;20230;-65
2023/03/12 08:50:21;;;;;;;15.90;9.40;;;6.10;99.90;;;;;;5053224;28;20191;-65
2023/03/12 08:52:47;;;;;;;9.43;7.83;;;5.90;99.90;;;;;;5054413;28;20699;-65
2023/03/12 08:55:13;;;;;;;11.10;8.00;;;5.90;99.90;;;;;;5049363;28;20548;-65
2023/03/12 08:57:38;;;;;;;11.20;7.77;;;5.90;99.90;;;;;;5046989;28;20219;-66
2023/03/12 09:00:10;;;;;;;11.33;7.93;;;6.00;99.90;;;;;;5049289;28;20722;-65
2023/03/12 09:02:38;;;;;;;11.00;7.93;;;5.80;99.90;;;;;;5050941;28;20441;-65
2023/03/12 09:05:04;;;;;;;10.37;9.07;;;5.90;99.90;;;;;;5053995;28;20437;-66
2023/03/12 09:07:31;;;;;;;10.97;8.20;;;6.10;99.90;;;;;;5045209;28;20948;-64
2023/03/12 09:09:56;;;;;;;14.20;9.40;;;6.00;99.90;;;;;;5051730;28;20448;-65
2023/03/12 09:12:22;;;;;;;13.50;9.50;;;6.00;99.90;;;;;;5052182;28;20430;-65
2023/03/12 09:14:49;;;;;;;9.77;8.00;;;6.00;99.90;;;;;;5047798;28;20215;-65
2023/03/12 09:17:14;;;;;;;12.20;8.47;;;6.10;99.90;;;;;;5053821;28;20468;-66
2023/03/12 09:19:40;;;;;;;8.70;7.80;;;6.10;99.90;;;;;;5054891;28;20434;-65
2023/03/12 09:22:05;;;;;;;10.77;7.90;;;6.20;99.90;;;;;;5050073;28;20195;-66
2023/03/12 09:24:31;;;;;;;10.40;8.13;;;6.10;99.90;;;;;;5052570;28;20664;-64
2023/03/12 09:26:56;;;;;;;9.37;8.37;;;6.20;99.90;;;;;;5051435;28;20619;-64
2023/03/12 09:29:23;;;;;;;8.27;6.93;;;6.10;99.90;;;;;;5051711;28;20183;-64
2023/03/12 09:31:49;;;;;;;14.97;8.07;;;6.10;99.90;;;;;;5052889;28;20175;-64
2023/03/12 09:34:15;;;;;;;8.87;7.67;;;6.10;99.90;;;;;;5050315;28;20816;-64
2023/03/12 09:36:41;;;;;;;10.53;7.00;;;6.10;99.90;;;;;;5050059;28;20457;-64
2023/03/12 09:39:06;;;;;;;10.80;7.20;;;6.10;99.90;;;;;;5052459;28;20705;-64
2023/03/12 09:41:37;;;;;;;10.60;7.20;;;6.20;99.90;;;;;;5044892;28;20179;-63
2023/03/12 09:44:15;;;;;;;9.50;6.97;;;6.30;99.90;;;;;;5051698;28;20542;-63
2023/03/12 09:46:49;;;;;;;7.90;7.10;;;6.40;99.90;;;;;;5051499;28;20519;-63
2023/03/12 09:49:35;;;;;;;10.23;6.70;;;6.40;99.90;;;;;;5053987;28;20516;-63
2023/03/12 09:52:07;;;;;;;8.73;7.57;;;6.40;99.90;;;;;;5048193;28;20444;-63
2023/03/12 09:54:53;;;;;;;8.53;7.63;;;6.60;99.90;;;;;;5043934;28;20462;-63
2023/03/12 09:57:24;;;;;;;9.57;7.23;;;6.70;99.90;;;;;;5047472;28;20547;-63
2023/03/12 09:59:51;;;;;;;8.40;7.50;;;6.80;99.90;;;;;;5046153;28;20437;-63
2023/03/12 10:02:43;;;;;;;7.83;7.03;;;6.90;99.90;;;;;;5049762;28;20509;-63
2023/03/12 10:05:49;;;;;;;11.00;7.70;;;6.90;99.90;;;;;;5048496;28;20472;-63
2023/03/12 10:08:28;;;;;;;9.43;7.57;;;7.00;99.90;;;;;;5050971;28;20429;-64
2023/03/12 10:11:08;;;;;;;9.97;8.13;;;7.00;99.90;;;;;;5051284;28;20437;-64
2023/03/12 10:13:54;;;;;;;10.30;8.53;;;6.90;99.90;;;;;;5050673;28;20502;-64
2023/03/12 10:16:19;;;;;;;10.47;9.43;;;7.00;99.90;;;;;;5048453;28;20844;-66
2023/03/12 10:19:07;;;;;;;11.10;9.50;;;7.20;99.90;;;;;;5046373;28;20430;-66
2023/03/12 10:21:42;;;;;;;10.50;9.30;;;7.40;99.90;;;;;;5046915;28;20187;-65
2023/03/12 10:24:30;;;;;;;11.00;9.23;;;7.50;99.90;;;;;;5051965;28;20460;-64
2023/03/12 10:26:57;;;;;;;10.33;9.23;;;7.50;99.90;;;;;;5047087;28;20497;-65
2023/03/12 10:29:29;;;;;;;11.07;9.97;;;7.50;99.90;;;;;;5050144;28;20428;-65
2023/03/12 10:32:11;;;;;;;12.90;10.80;;;7.60;99.90;;;;;;5050322;28;20433;-65
2023/03/12 10:34:47;;;;;;;14.80;10.93;;;7.90;99.90;;;;;;5050530;28;20449;-64
2023/03/12 10:37:34;;;;;;;10.93;9.73;;;8.00;99.90;;;;;;5048950;28;20465;-64
2023/03/12 10:40:01;;;;;;;11.67;10.47;;;8.30;99.90;;;;;;5050500;28;20433;-64
2023/03/12 10:42:28;;;;;;;11.50;10.33;;;8.40;99.90;;;;;;5054425;28;20426;-65
2023/03/12 10:44:59;;;;;;;10.97;9.87;;;8.50;99.90;;;;;;5045639;28;20502;-64
2023/03/12 10:47:35;;;;;;;14.30;11.00;;;8.60;99.90;;;;;;5046748;28;20518;-65
2023/03/12 10:50:31;;;;;;;13.10;10.87;;;8.80;99.90;;;;;;5049319;28;20441;-64
2023/03/12 10:53:22;;;;;;;13.53;9.10;;;9.10;99.90;;;;;;5050936;28;20471;-64
2023/03/12 10:56:06;;;;;;;13.43;10.50;;;9.10;99.90;;;;;;5048914;28;20464;-64
2023/03/12 10:58:38;;;;;;;11.13;10.00;;;9.30;99.90;;;;;;5053553;28;20422;-66
2023/03/12 11:01:06;;;;;;;12.43;9.97;;;9.60;99.90;;;;;;5049680;28;20498;-63
2023/03/12 11:03:32;;;;;;;13.90;10.37;;;10.00;99.90;;;;;;5050423;28;20461;-66
2023/03/12 11:06:05;;;;;;;15.27;10.77;;;10.00;99.90;;;;;;5046843;28;20433;-65
2023/03/12 11:08:34;;;;;;;12.20;10.10;;;10.20;99.90;;;;;;5051681;28;20437;-66
2023/03/12 11:11:02;;;;;;;10.90;8.97;;;10.30;99.90;;;;;;5051810;28;20535;-67
2023/03/12 11:13:33;;;;;;;14.40;8.77;;;10.40;99.90;;;;;;5057348;28;20526;-65
2023/03/12 11:16:02;;;;;;;10.90;7.87;;;10.50;99.90;;;;;;5050143;28;20518;-64
2023/03/12 11:18:33;;;;;;;9.13;8.20;;;10.60;99.90;;;;;;5048047;28;20521;-64
2023/03/12 11:21:08;;;;;;;10.80;9.10;;;10.80;99.90;;;;;;5040608;28;20492;-62
2023/03/12 11:23:35;;;;;;;10.50;8.97;;;10.90;99.90;;;;;;5049966;28;20523;-63
2023/03/12 11:26:03;;;;;;;15.03;8.87;;;11.00;99.90;;;;;;5043637;28;20453;-63
2023/03/12 11:28:45;;;;;;;8.80;7.57;;;11.10;99.90;;;;;;5036470;28;20485;-66
2023/03/12 11:31:25;;;;;;;9.17;7.17;;;11.40;99.90;;;;;;5045973;28;21059;-64
2023/03/12 11:33:53;;;;;;;11.23;7.00;;;11.50;99.90;;;;;;5044821;28;20949;-63
2023/03/12 11:36:48;;;;;;;8.63;7.20;;;11.60;99.90;;;;;;5049564;28;20496;-64
2023/03/12 11:39:43;;;;;;;10.57;6.77;;;11.60;99.90;;;;;;5047218;28;20432;-64
2023/03/12 11:42:20;;;;;;;12.40;7.20;;;11.60;99.90;;;;;;5026174;28;20444;-64
2023/03/12 11:45:03;;;;;;;10.00;6.63;;;11.50;99.90;;;;;;5053480;28;20425;-64
2023/03/12 11:47:38;;;;;;;9.63;6.80;;;11.60;99.90;;;;;;5051028;28;20480;-63
2023/03/12 11:50:22;;;;;;;9.30;6.73;;;11.60;99.90;;;;;;5054476;28;20729;-63
2023/03/12 11:53:11;;;;;;;12.60;7.30;;;11.70;99.90;;;;;;5051154;28;20429;-63
2023/03/12 11:55:46;;;;;;;12.03;8.20;;;11.90;99.90;;;;;;5054793;28;20464;-63
2023/03/12 11:58:32;;;;;;;10.67;7.23;;;12.00;99.90;;;;;;5054124;28;20481;-63
2023/03/12 12:01:20;;;;;;;16.47;7.67;;;12.00;99.90;;;;;;5044148;28;20954;-65
2023/03/12 12:04:03;;;;;;;11.27;6.90;;;12.00;99.90;;;;;;5052351;28;21055;-66
2023/03/12 12:06:54;;;;;;;9.70;6.20;;;12.10;99.90;;;;;;5053012;28;20448;-63
2023/03/12 12:09:54;;;;;;;8.83;5.90;;;12.00;99.90;;;;;;5053996;28;20442;-63
2023/03/12 12:12:32;;;;;;;9.37;6.50;;;12.00;99.90;;;;;;5049119;28;20499;-63
2023/03/12 12:15:23;;;;;;;7.43;5.57;;;11.90;99.90;;;;;;5052131;28;20472;-63
2023/03/12 12:18:03;;;;;;;7.10;6.37;;;12.10;99.90;;;;;;5065169;28;20452;-66
2023/03/12 12:21:01;;;;;;;8.87;5.60;;;12.20;99.90;;;;;;5052558;28;20440;-67
2023/03/12 12:24:03;;;;;;;8.10;4.43;;;12.30;99.90;;;;;;5018264;28;20452;-64
2023/03/12 12:26:54;;;;;;;9.53;5.27;;;12.50;99.90;;;;;;5030862;28;20552;-64
2023/03/12 12:29:34;;;;;;;6.33;4.10;;;12.50;99.90;;;;;;5051396;28;21344;-66
2023/03/12 12:32:02;;;;;;;7.87;4.90;;;12.50;99.90;;;;;;5052143;28;20938;-63
2023/03/12 12:34:43;;;;;;;5.93;3.27;;;12.50;99.90;;;;;;5051896;28;20647;-64
2023/03/12 12:37:30;;;;;;;6.33;3.93;;;12.70;99.90;;;;;;5050739;28;20462;-64
2023/03/12 12:40:20;;;;;;;6.43;3.50;;;12.60;99.90;;;;;;5052313;28;20925;-65
2023/03/12 12:43:02;;;;;;;7.73;4.20;;;12.70;99.90;;;;;;5051497;28;20437;-65
2023/03/12 12:45:28;;;;;;;7.03;3.80;;;12.60;99.90;;;;;;5049571;28;20433;-65
2023/03/12 12:48:28;;;;;;;10.50;3.60;;;12.80;99.90;;;;;;5048089;28;20487;-65
2023/03/12 12:50:58;;;;;;;6.67;3.50;;;12.80;99.90;;;;;;5050174;28;20984;-65
2023/03/12 12:53:38;;;;;;;8.83;3.47;;;13.90;99.90;;;;;;5050885;28;20528;-63
2023/03/12 12:56:23;;;;;;;12.87;3.80;;;14.20;99.90;;;;;;5052662;28;20483;-63
2023/03/12 12:58:48;;;;;;;7.17;3.33;;;15.70;99.90;;;;;;5047611;28;20442;-64
2023/03/12 13:01:16;;;;;;;8.67;3.77;;;15.10;99.90;;;;;;5040690;28;21013;-64
2023/03/12 13:03:43;;;;;;;5.70;3.00;;;14.60;99.90;;;;;;5044665;28;20199;-64